Oakley, Michigan
Current Conditions -  °F | °C
As of 3:13 PM on Saturday 25 Oct 2014 (Local Time) from KRNP Reporting Station
Clear Clear  
Wind Chill: 67°   Ceiling: Unl
Heat Index: 67°   Visibility: 10mi
Dew Point: 41°   Wind: 17mph
Humidity: 38%   Direction: 260°W
Pressure: 29.74"   Gusts: 26mph
Location:  43.14°N, 84.17°W
Report Text: KRNP 251913Z AUTO 26015G23KT 10SM CLR 20/05 A2974 RMK AO2 T01950048
Loading
Personal Weather Stations






























Interactive Weather Map
Tropical Storm Tracking
New forecast layout! Learn more

10-Day Weather Forecast

Advertisements
Track Severe Weather on mobile